Airfield :
LOGIN :

Register | Disclaimer

   EN    FR    IT 

 










Legend :    VFR   Marginal VFR   IFR   Intensive IFR   Very Intensive IFR
Visi :
Ceiling :
>= 8 km
>= 3000ft
5 to 8 km
1000 to 3000 ft
1500m to 5 km
500 to 1000 ft
800 to 1500m
200 to 500 ft
< 800m
< 200 ft
Symbols :   Thunderstorms  Fog  Heavy snow  Heavy precipitations  Wind > 20 kt
SIGMETs :     Misc.  Thunderstorms  Icing  Turbulence  Mountain Waves  Volcanic Ashes






- Airport Elevation : 28 ft
- IATA code : SOZ


LFKS - Solenzara

CURRENT METAR :
  • 071000Z AUTO 08011KT CAVOK 30/20 Q1017

EXPIRED METARs :
  • 070930Z AUTO 07012KT CAVOK 30/19 Q1017
  • 070900Z AUTO 07010KT 030V090 CAVOK 31/18 Q1017
  • 070830Z AUTO 06010KT CAVOK 30/16 Q1017
  • 070800Z AUTO 02013KT CAVOK 30/15 Q1017
  • 070730Z AUTO 02013KT CAVOK 30/15 Q1017

TAF TAF LFKS
Valid from the 07 at 09:00 until the 08 at 09:00 UTC


070800Z 0709/0809 05010KT CAVOK
TEMPO 0709/0714 05015G25KT
BECMG 0715/0717 21005KT



MET'MAP, your aeronautical weather chart ! - Copyright ORBIFLY December 2007 - Disclaimer

ORBIFLY MET'MAP TEAM :

Programming & Development : Alexandra Zaïnal
Concept & original design : Baudouin d'Aumeries
Assistance for programming : Marc-Olivier Méhu
Technical & hardware support : Manuel Goepfert

Contact : metmap@orbifly.com




SOURCES & CREDITS :

   NOAA